createdAt,value
2023-04-26T00:01:44.908Z,100896.28
2023-04-26T00:06:49.654Z,100894.38
2023-04-26T00:11:52.471Z,100899.59
2023-04-26T00:16:55.263Z,100900.47
2023-04-26T00:21:57.951Z,100904.41
2023-04-26T00:27:01.599Z,100912.88
2023-04-26T00:32:04.422Z,100910.81
2023-04-26T00:37:07.311Z,100926.34
2023-04-26T00:42:09.967Z,100924.72
2023-04-26T00:47:12.644Z,100922.22
2023-04-26T00:52:15.503Z,100927.06
2023-04-26T00:57:18.173Z,100937.00
2023-04-26T01:02:21.040Z,100923.28
2023-04-26T01:07:24.351Z,100930.88
2023-04-26T01:12:27.947Z,100924.03
2023-04-26T01:17:31.169Z,100932.00
2023-04-26T01:22:34.853Z,100941.56
2023-04-26T01:27:37.711Z,100959.84
2023-04-26T01:32:40.268Z,100961.91
2023-04-26T01:37:42.809Z,100966.66
2023-04-26T01:42:45.384Z,100960.09
2023-04-26T01:47:48.002Z,100959.84
2023-04-26T01:52:50.605Z,100969.81
2023-04-26T01:57:54.730Z,100974.84
2023-04-26T02:02:57.659Z,100986.34
2023-04-26T02:08:00.288Z,100990.00
2023-04-26T02:13:03.064Z,100993.94
2023-04-26T02:18:05.965Z,100992.41
2023-04-26T02:23:08.535Z,100998.81
2023-04-26T02:28:11.150Z,101005.56
2023-04-26T02:33:13.692Z,101004.38
2023-04-26T02:38:16.534Z,101011.38
2023-04-26T02:43:19.250Z,101015.13
2023-04-26T02:48:21.786Z,101025.09
2023-04-26T02:53:24.461Z,101035.53
2023-04-26T02:58:27.265Z,101030.75
2023-04-26T03:03:31.278Z,101028.16
2023-04-26T03:08:35.567Z,101040.53
2023-04-26T03:13:38.459Z,101037.19
2023-04-26T03:18:41.574Z,101045.28
2023-04-26T03:23:45.237Z,101058.22
2023-04-26T03:28:51.229Z,101067.56
2023-04-26T03:33:54.005Z,101077.59
2023-04-26T03:38:56.984Z,101089.19
2023-04-26T03:44:00.434Z,101087.94
2023-04-26T03:49:03.126Z,101089.75
2023-04-26T03:54:06.432Z,101089.91
2023-04-26T03:59:10.438Z,101088.47
2023-04-26T04:04:14.407Z,101091.41
2023-04-26T04:09:17.947Z,101092.66
2023-04-26T04:14:20.686Z,101090.31
2023-04-26T04:19:23.429Z,101100.91
2023-04-26T04:24:26.514Z,101106.19
2023-04-26T04:29:29.420Z,101122.19
2023-04-26T04:34:36.228Z,101137.75
2023-04-26T04:39:39.852Z,101139.69
2023-04-26T04:44:43.177Z,101145.13
2023-04-26T04:49:46.082Z,101156.56
2023-04-26T04:54:49.192Z,101154.81
2023-04-26T04:59:52.009Z,101157.91
2023-04-26T05:04:55.722Z,101156.50
2023-04-26T05:09:58.849Z,101166.13
2023-04-26T05:15:01.655Z,101164.78
2023-04-26T05:20:08.294Z,101172.50
2023-04-26T05:25:10.935Z,101166.03
2023-04-26T05:30:14.588Z,101176.97
2023-04-26T05:35:37.800Z,101178.91
2023-04-26T05:40:40.655Z,101173.88
2023-04-26T05:45:53.399Z,101170.84
2023-04-26T05:50:56.134Z,101196.53
2023-04-26T05:55:58.751Z,101171.03
2023-04-26T06:01:01.521Z,101176.47
2023-04-26T06:06:04.638Z,101187.78
2023-04-26T06:11:08.003Z,101182.31
2023-04-26T06:16:10.879Z,101213.50
2023-04-26T06:21:13.886Z,101202.50
2023-04-26T06:26:19.036Z,101209.09
2023-04-26T06:31:24.309Z,101207.47
2023-04-26T06:36:31.982Z,101191.53
2023-04-26T06:41:38.011Z,101205.44
2023-04-26T06:46:41.692Z,101212.25
2023-04-26T06:51:44.985Z,101224.56
2023-04-26T06:56:50.516Z,101217.25
2023-04-26T07:01:57.060Z,101240.16
2023-04-26T07:06:59.935Z,101216.34
2023-04-26T07:12:03.488Z,101213.75
2023-04-26T07:17:39.937Z,101217.00
2023-04-26T07:22:43.173Z,101214.03
2023-04-26T07:27:47.058Z,101230.78
2023-04-26T07:32:49.929Z,101237.38
2023-04-26T07:37:52.528Z,101244.97
2023-04-26T07:42:58.680Z,101250.31
2023-04-26T07:48:04.260Z,101250.91
2023-04-26T07:53:07.244Z,101248.34
2023-04-26T07:58:14.588Z,101247.69
2023-04-26T08:03:19.141Z,101249.34
2023-04-26T08:08:24.823Z,101249.41
2023-04-26T08:13:30.259Z,101248.66
2023-04-26T08:18:35.823Z,101240.34
2023-04-26T08:23:40.298Z,101232.75
2023-04-26T08:28:42.852Z,101222.53
2023-04-26T08:33:45.477Z,101221.44
2023-04-26T08:38:48.098Z,101222.66
2023-04-26T08:43:53.200Z,101221.88
2023-04-26T08:49:13.822Z,101217.97
2023-04-26T08:54:18.350Z,101216.00
2023-04-26T08:59:21.732Z,101209.63
2023-04-26T09:11:18.590Z,101214.91
2023-04-26T09:16:34.645Z,101220.22
2023-04-26T09:21:44.931Z,101206.13
2023-04-26T09:27:04.757Z,101222.56
2023-04-26T09:32:08.596Z,101217.41
2023-04-26T09:37:14.059Z,101203.34
2023-04-26T09:42:19.221Z,101204.22
2023-04-26T09:47:22.330Z,101195.78
2023-04-26T09:52:24.951Z,101195.00
2023-04-26T09:57:27.632Z,101187.38
2023-04-26T10:02:30.581Z,101202.66
2023-04-26T10:07:34.395Z,101196.25
2023-04-26T10:12:37.582Z,101204.66
2023-04-26T10:17:40.539Z,101208.22
2023-04-26T10:22:46.845Z,101201.28
2023-04-26T10:27:50.276Z,101205.22
2023-04-26T10:48:31.616Z,101223.41
2023-04-26T11:04:53.759Z,101219.75
2023-04-26T11:09:56.368Z,101209.81
2023-04-26T11:15:01.176Z,101212.50
2023-04-26T11:20:10.436Z,101210.53
2023-04-26T11:25:15.417Z,101217.47
2023-04-26T11:30:20.116Z,101212.94
2023-04-26T11:35:23.703Z,101216.38
2023-04-26T11:40:29.151Z,101213.56
2023-04-26T11:45:33.573Z,101202.03
2023-04-26T11:50:38.656Z,101209.94
2023-04-26T11:55:41.975Z,101212.81
2023-04-26T12:01:02.684Z,101223.75
2023-04-26T12:06:06.341Z,101225.91
2023-04-26T12:11:09.062Z,101231.09
2023-04-26T12:16:25.532Z,101229.91
2023-04-26T12:21:30.825Z,101229.44
2023-04-26T12:26:45.129Z,101216.78
2023-04-26T12:31:47.879Z,101230.38
2023-04-26T12:36:50.613Z,101229.38
2023-04-26T12:41:53.432Z,101229.28
2023-04-26T12:46:56.030Z,101235.28
2023-04-26T12:51:58.558Z,101234.38
2023-04-26T12:57:02.135Z,101230.66
2023-04-26T13:02:04.693Z,101232.94
2023-04-26T13:07:08.284Z,101228.28
2023-04-26T13:12:10.885Z,101230.13
2023-04-26T13:17:13.234Z,101235.41
2023-04-26T13:22:16.236Z,101242.16
2023-04-26T13:27:18.820Z,101233.25
2023-04-26T13:32:22.093Z,101239.97
2023-04-26T13:37:24.628Z,101228.44
2023-04-26T13:42:27.582Z,101232.94
2023-04-26T13:47:30.080Z,101236.41
2023-04-26T13:52:32.729Z,101237.78
2023-04-26T13:57:35.084Z,101233.16
2023-04-26T14:02:38.079Z,101229.50
2023-04-26T14:07:41.753Z,101236.63
2023-04-26T14:12:44.390Z,101230.16
2023-04-26T14:17:47.113Z,101230.19
2023-04-26T14:22:50.585Z,101219.94
2023-04-26T14:27:55.164Z,101228.75
2023-04-26T14:32:57.890Z,101212.19
2023-04-26T14:38:00.733Z,101233.16
2023-04-26T14:43:03.344Z,101233.72
2023-04-26T14:48:06.396Z,101225.19
2023-04-26T14:53:09.977Z,101221.56
2023-04-26T14:58:12.535Z,101223.19
2023-04-26T15:03:15.421Z,101219.84
2023-04-26T15:08:18.360Z,101230.53
2023-04-26T15:13:21.280Z,101231.53
2023-04-26T15:18:24.083Z,101232.28
2023-04-26T15:23:27.305Z,101227.19
2023-04-26T15:28:29.943Z,101229.97
2023-04-26T15:33:32.660Z,101230.75
2023-04-26T15:38:35.388Z,101236.88
2023-04-26T15:43:37.864Z,101235.28
2023-04-26T15:48:40.542Z,101239.03
2023-04-26T15:53:44.217Z,101245.66
2023-04-26T15:58:47.786Z,101255.56
2023-04-26T16:03:50.920Z,101246.72
2023-04-26T16:08:53.889Z,101250.81
2023-04-26T16:13:56.970Z,101255.13
2023-04-26T16:18:59.513Z,101255.66
2023-04-26T16:24:02.539Z,101271.41
2023-04-26T16:29:05.239Z,101274.59
2023-04-26T16:34:07.948Z,101271.34
2023-04-26T16:39:14.965Z,101277.75
2023-04-26T16:44:18.593Z,101275.28
2023-04-26T16:49:21.208Z,101284.06
2023-04-26T16:54:23.797Z,101288.03
2023-04-26T16:59:27.632Z,101280.28
2023-04-26T17:04:31.353Z,101284.22
2023-04-26T17:09:34.896Z,101286.97
2023-04-26T17:14:38.157Z,101282.13
2023-04-26T17:19:40.745Z,101284.50
2023-04-26T17:24:43.550Z,101286.47
2023-04-26T17:29:46.612Z,101278.78
2023-04-26T17:34:49.212Z,101285.97
2023-04-26T17:39:52.291Z,101282.69
2023-04-26T17:44:56.230Z,101285.44
2023-04-26T17:49:59.059Z,101293.78
2023-04-26T17:55:01.762Z,101289.59
2023-04-26T18:00:09.503Z,101294.34
2023-04-26T18:05:24.655Z,101294.69
2023-04-26T18:10:27.211Z,101291.91
2023-04-26T18:15:30.340Z,101286.59
2023-04-26T18:20:34.240Z,101288.81
2023-04-26T18:25:37.214Z,101279.69
2023-04-26T18:30:39.772Z,101286.41
2023-04-26T18:35:42.419Z,101284.47
2023-04-26T18:40:45.928Z,101269.34
2023-04-26T18:45:49.356Z,101277.34
2023-04-26T18:50:54.423Z,101273.41
2023-04-26T18:55:57.266Z,101272.47
2023-04-26T19:00:59.901Z,101267.94
2023-04-26T19:06:08.073Z,101274.56
2023-04-26T19:11:12.426Z,101260.03
2023-04-26T19:16:16.153Z,101266.41
2023-04-26T19:21:18.795Z,101267.44
2023-04-26T19:26:21.595Z,101269.31
2023-04-26T19:31:25.248Z,101265.00
2023-04-26T19:36:28.851Z,101268.63
2023-04-26T19:41:32.342Z,101286.94
2023-04-26T19:46:34.923Z,101281.94
2023-04-26T19:51:37.715Z,101288.09
2023-04-26T19:56:40.305Z,101292.69
2023-04-26T20:01:42.857Z,101287.72
2023-04-26T20:06:45.607Z,101294.41
2023-04-26T20:11:49.835Z,101290.25
2023-04-26T20:16:52.543Z,101295.22
2023-04-26T20:21:56.455Z,101301.22
2023-04-26T20:26:58.881Z,101307.09
2023-04-26T20:32:01.454Z,101309.31
2023-04-26T20:37:04.116Z,101304.81
2023-04-26T20:42:06.700Z,101308.44
2023-04-26T20:47:09.487Z,101311.94
2023-04-26T20:52:12.911Z,101312.81
2023-04-26T20:57:16.209Z,101315.72
2023-04-26T21:02:19.048Z,101304.38
2023-04-26T21:07:21.806Z,101305.09
2023-04-26T21:12:24.896Z,101314.91
2023-04-26T21:17:27.514Z,101317.63
2023-04-26T21:22:30.337Z,101312.63
2023-04-26T21:27:33.052Z,101311.03
2023-04-26T21:32:35.840Z,101320.19
2023-04-26T21:37:38.591Z,101315.97
2023-04-26T21:42:44.724Z,101316.78
2023-04-26T21:47:54.157Z,101300.41
2023-04-26T21:52:56.778Z,101315.19
2023-04-26T21:57:59.447Z,101304.97
2023-04-26T22:03:02.113Z,101300.28
2023-04-26T22:08:04.988Z,101300.66
2023-04-26T22:13:07.628Z,101292.25
2023-04-26T22:18:10.402Z,101294.75
2023-04-26T22:23:12.961Z,101299.91
2023-04-26T22:28:16.578Z,101297.22
2023-04-26T22:33:19.131Z,101287.84
2023-04-26T22:38:21.901Z,101295.50
2023-04-26T22:43:24.506Z,101298.81
2023-04-26T22:48:27.384Z,101299.81
2023-04-26T22:53:30.434Z,101295.66
2023-04-26T22:58:33.002Z,101295.88
2023-04-26T23:03:37.060Z,101301.81
2023-04-26T23:08:39.811Z,101294.84
2023-04-26T23:13:42.470Z,101307.03
2023-04-26T23:18:46.625Z,101307.50
2023-04-26T23:23:49.156Z,101295.53
2023-04-26T23:28:51.972Z,101298.06
2023-04-26T23:33:54.522Z,101287.00
2023-04-26T23:38:57.148Z,101290.56
2023-04-26T23:43:59.780Z,101297.94
2023-04-26T23:49:02.582Z,101296.81
2023-04-26T23:54:05.330Z,101312.28
2023-04-26T23:59:07.993Z,101313.59
